Time;durP1;ratioP1;P1;durP2;ratioP2;P2;SDS_P1;SDS_P2;PMS_P1;PMS_P2;Temp;Humidity;BMP_temperature;BMP_pressure;BME280_temperature;BME280_humidity;BME280_pressure;Samples;Min_cycle;Max_cycle;Signal;HPM_P1;HPM_P2
2023/09/29 00:01:40;;;;;;;22.23;7.38;;;;;;;;;;4694309;30;20106;-88
2023/09/29 00:04:06;;;;;;;19.15;6.10;;;;;;;;;;4707595;30;20138;-86
2023/09/29 00:06:36;;;;;;;28.48;7.38;;;;;;;;;;4722261;30;20049;-87
2023/09/29 00:09:12;;;;;;;20.35;6.38;;;15.90;1.00;;;;;;4737081;30;20056;-88
2023/09/29 00:11:38;;;;;;;16.42;5.50;;;;;;;;;;4737121;30;20052;-87
2023/09/29 00:14:04;;;;;;;20.17;5.82;;;;;;;;;;4736590;30;20052;-87
2023/09/29 00:16:30;;;;;;;20.58;6.55;;;;;;;;;;4736080;30;20084;-87
2023/09/29 00:18:56;;;;;;;20.67;5.70;;;;;;;;;;4720591;30;20143;-86
2023/09/29 00:21:23;;;;;;;27.10;6.63;;;;;;;;;;4690711;30;20091;-87
2023/09/29 00:23:49;;;;;;;16.52;5.35;;;;;;;;;;4705578;30;20052;-87
2023/09/29 00:26:15;;;;;;;14.70;6.40;;;;;;;;;;4719678;30;20412;-87
2023/09/29 00:28:42;;;;;;;22.83;6.15;;;;;;;;;;4705062;30;20575;-87
2023/09/29 00:31:08;;;;;;;13.68;4.68;;;;;;;;;;4690755;30;20079;-86
2023/09/29 00:33:35;;;;;;;19.83;6.65;;;;;;;;;;4719134;30;20048;-89
2023/09/29 00:36:01;;;;;;;13.88;5.65;;;;;;;;;;4734560;30;20115;-86
2023/09/29 00:38:27;;;;;;;17.88;5.78;;;;;;;;;;4733460;30;20048;-85
2023/09/29 00:40:53;;;;;;;22.33;6.68;;;;;;;;;;4733460;30;20049;-83
2023/09/29 00:43:19;;;;;;;14.23;5.57;;;;;;;;;;4689854;30;20060;-83
2023/09/29 00:45:48;;;;;;;21.75;5.97;;;;;;;;;;4704302;30;20051;-83
2023/09/29 00:48:14;;;;;;;20.50;5.07;;;;;;;;;;4732609;30;20071;-83
2023/09/29 00:50:41;;;;;;;11.98;4.80;;;;;;;;;;4689485;30;20045;-83
2023/09/29 00:53:11;;;;;;;12.05;5.10;;;;;;;;;;4718566;30;20400;-83
2023/09/29 00:55:40;;;;;;;16.85;6.03;;;;;;;;;;4734011;30;20149;-85
2023/09/29 00:58:06;;;;;;;25.30;5.50;;;;;;;;;;4719344;30;20079;-86
2023/09/29 01:00:36;;;;;;;21.73;6.65;;;;;;;;;;4689902;30;20048;-84
2023/09/29 01:03:12;;;;;;;12.73;5.38;;;16.00;1.00;;;;;;4732231;30;20063;-92
2023/09/29 01:05:44;;;;;;;13.32;4.55;;;16.00;1.00;;;;;;4704030;30;20049;-85
2023/09/29 01:08:12;;;;;;;12.95;6.38;;;16.00;1.00;;;;;;4717996;30;20100;-86
2023/09/29 01:10:39;;;;;;;11.63;4.88;;;;;;;;;;4703550;30;20049;-85
2023/09/29 01:13:06;;;;;;;11.98;4.70;;;;;;;;;;4719510;30;20088;-90
2023/09/29 01:15:33;;;;;;;15.80;5.93;;;;;;;;;;4736968;30;20595;-91
2023/09/29 01:18:00;;;;;;;14.93;4.95;;;;;;;;;;4737279;30;20068;-92
2023/09/29 01:20:30;;;;;;;14.95;6.05;;;;;;;;;;4736945;30;20061;-87
2023/09/29 01:23:00;;;;;;;12.90;5.63;;;;;;;;;;4721043;30;20059;-92
2023/09/29 01:25:26;;;;;;;15.85;6.55;;;;;;;;;;4736714;30;20389;-88
2023/09/29 01:27:54;;;;;;;15.55;5.78;;;;;;;;;;4720989;30;20422;-86
2023/09/29 01:30:20;;;;;;;19.40;6.75;;;;;;;;;;4720932;30;20479;-87
2023/09/29 01:32:52;;;;;;;12.35;5.70;;;16.00;1.00;;;;;;4735640;30;20093;-91
2023/09/29 01:35:23;;;;;;;18.23;6.03;;;;;;;;;;4706206;30;20044;-87
2023/09/29 01:37:49;;;;;;;19.52;7.07;;;;;;;;;;4692580;30;20056;-90
2023/09/29 01:40:16;;;;;;;15.38;6.45;;;;;;;;;;4706352;30;20521;-90
2023/09/29 01:42:43;;;;;;;21.15;6.97;;;15.90;1.00;;;;;;4735492;30;20908;-89
2023/09/29 01:45:10;;;;;;;13.18;6.45;;;;;;;;;;4720777;30;20059;-84
2023/09/29 01:47:37;;;;;;;15.13;5.82;;;;;;;;;;4692572;30;20048;-86
2023/09/29 01:50:05;;;;;;;17.80;6.45;;;;;;;;;;4735352;30;20056;-86
2023/09/29 01:52:31;;;;;;;12.95;5.53;;;;;;;;;;4706220;30;20236;-83
2023/09/29 01:54:57;;;;;;;17.83;6.18;;;;;;;;;;4734969;30;20056;-91
2023/09/29 01:57:24;;;;;;;18.48;6.00;;;;;;;;;;4706000;30;20053;-88
2023/09/29 01:59:50;;;;;;;16.38;6.45;;;;;;;;;;4692217;30;20139;-86
2023/09/29 02:02:16;;;;;;;10.48;5.13;;;15.90;1.00;;;;;;4706311;30;20059;-86
2023/09/29 02:04:42;;;;;;;21.23;7.47;;;;;;;;;;4735339;30;20067;-86
2023/09/29 02:07:09;;;;;;;14.45;6.50;;;;;;;;;;4721056;30;20110;-86
2023/09/29 02:09:36;;;;;;;11.50;5.93;;;;;;;;;;4720832;30;20064;-86
2023/09/29 02:12:02;;;;;;;18.02;7.47;;;;;;;;;;4692811;30;20625;-87
2023/09/29 02:14:29;;;;;;;17.48;5.47;;;;;;;;;;4736096;30;20080;-87
2023/09/29 02:16:55;;;;;;;16.00;4.93;;;;;;;;;;4735468;30;20059;-85
2023/09/29 02:19:21;;;;;;;17.33;7.07;;;;;;;;;;4705962;30;20056;-83
2023/09/29 02:21:47;;;;;;;21.08;6.53;;;;;;;;;;4706055;30;20060;-86
2023/09/29 02:24:13;;;;;;;19.17;5.55;;;;;;;;;;4691354;30;20096;-87
2023/09/29 02:26:41;;;;;;;13.98;5.93;;;;;;;;;;4720674;30;20522;-87
2023/09/29 02:29:08;;;;;;;9.25;5.57;;;;;;;;;;4720508;30;20060;-86
2023/09/29 02:31:36;;;;;;;16.38;6.60;;;;;;;;;;4720326;30;20049;-86
2023/09/29 02:34:02;;;;;;;12.60;5.30;;;;;;;;;;4691555;30;20503;-85
2023/09/29 02:36:28;;;;;;;15.25;5.28;;;;;;;;;;4690948;30;20049;-85
2023/09/29 02:38:55;;;;;;;21.13;5.72;;;;;;;;;;4734619;30;20056;-86
2023/09/29 02:41:21;;;;;;;15.68;6.03;;;;;;;;;;4719540;30;20044;-86
2023/09/29 02:43:46;;;;;;;14.18;5.72;;;16.20;1.00;;;;;;4704601;30;20053;-84
2023/09/29 02:46:16;;;;;;;11.70;4.75;;;;;;;;;;4690759;30;20053;-85
2023/09/29 02:48:42;;;;;;;18.83;5.82;;;;;;;;;;4718997;30;20052;-83
2023/09/29 02:51:16;;;;;;;18.77;5.05;;;16.10;1.00;;;;;;4733871;30;20052;-83
2023/09/29 02:53:42;;;;;;;12.27;5.00;;;;;;;;;;4690366;30;20052;-86
2023/09/29 02:56:11;;;;;;;16.50;5.20;;;;;;;;;;4718883;30;20044;-83
2023/09/29 02:58:38;;;;;;;16.83;6.55;;;;;;;;;;4705155;30;20515;-82
2023/09/29 03:01:07;;;;;;;15.57;4.85;;;16.00;1.00;;;;;;4690389;30;20056;-82
2023/09/29 03:03:33;;;;;;;15.98;4.80;;;;;;;;;;4704519;30;20060;-84
2023/09/29 03:05:59;;;;;;;11.93;5.38;;;;;;;;;;4704898;30;20487;-84
2023/09/29 03:08:25;;;;;;;15.48;5.25;;;;;;;;;;4718845;30;20474;-83
2023/09/29 03:10:51;;;;;;;22.67;4.95;;;;;;;;;;4733608;30;20064;-86
2023/09/29 03:13:17;;;;;;;10.88;4.78;;;;;;;;;;4704581;30;20462;-87
2023/09/29 03:15:43;;;;;;;17.05;5.45;;;;;;;;;;4690295;30;20056;-83
2023/09/29 03:18:10;;;;;;;14.93;5.13;;;;;;;;;;4704419;30;20059;-86
2023/09/29 03:20:36;;;;;;;8.98;4.15;;;;;;;;;;4733385;30;20056;-91
2023/09/29 03:23:04;;;;;;;17.02;5.80;;;;;;;;;;4704300;30;20135;-86
2023/09/29 03:25:30;;;;;;;16.90;5.03;;;;;;;;;;4733207;30;20057;-86
2023/09/29 03:27:56;;;;;;;19.13;5.63;;;;;;;;;;4718760;30;20507;-83
2023/09/29 03:30:22;;;;;;;16.08;4.80;;;;;;;;;;4690076;30;20098;-89
2023/09/29 03:32:48;;;;;;;12.63;5.68;;;;;;;;;;4719158;30;20377;-93
2023/09/29 03:35:14;;;;;;;18.30;6.10;;;;;;;;;;4719241;30;20040;-88
2023/09/29 03:37:42;;;;;;;14.20;3.92;;;;;;;;;;4733791;30;20109;-84
2023/09/29 03:40:14;;;;;;;18.58;5.43;;;;;;;;;;4718876;30;20049;-91
2023/09/29 03:42:43;;;;;;;16.13;5.68;;;;;;;;;;4734681;30;20131;-87
2023/09/29 03:45:11;;;;;;;19.10;5.70;;;;;;;;;;4719072;30;20412;-89
2023/09/29 03:47:37;;;;;;;11.07;5.78;;;;;;;;;;4733406;30;20049;-83
2023/09/29 03:50:07;;;;;;;16.48;4.60;;;;;;;;;;4733002;30;20067;-84
2023/09/29 03:52:33;;;;;;;13.13;4.90;;;;;;;;;;4733254;30;20115;-85
2023/09/29 03:54:59;;;;;;;17.58;4.47;;;;;;;;;;4733046;30;20067;-85
2023/09/29 03:57:26;;;;;;;8.73;4.30;;;;;;;;;;4703883;30;20526;-86
2023/09/29 03:59:52;;;;;;;19.60;6.57;;;;;;;;;;4733165;30;20433;-85
2023/09/29 04:02:20;;;;;;;10.38;4.45;;;;;;;;;;4689118;30;20618;-86
2023/09/29 04:04:47;;;;;;;15.95;4.88;;;;;;;;;;4689698;30;20052;-88
2023/09/29 04:07:13;;;;;;;11.30;4.43;;;;;;;;;;4719839;30;20062;-88
2023/09/29 04:09:39;;;;;;;13.48;4.82;;;;;;;;;;4705277;30;20103;-87
2023/09/29 04:12:05;;;;;;;13.63;4.78;;;;;;;;;;4706250;30;20057;-89
2023/09/29 04:14:32;;;;;;;15.00;6.22;;;;;;;;;;4720965;30;20071;-87
2023/09/29 04:16:58;;;;;;;19.02;5.70;;;;;;;;;;4720188;30;20076;-86
2023/09/29 04:19:24;;;;;;;7.60;3.83;;;;;;;;;;4690279;30;20048;-86
2023/09/29 04:21:50;;;;;;;13.65;5.22;;;;;;;;;;4705888;30;20108;-88
2023/09/29 04:24:16;;;;;;;11.50;4.57;;;;;;;;;;4719599;30;20102;-86
2023/09/29 04:26:42;;;;;;;10.70;4.22;;;;;;;;;;4717768;30;20084;-88
2023/09/29 04:29:08;;;;;;;11.00;4.55;;;;;;;;;;4732607;30;20574;-87
2023/09/29 04:31:34;;;;;;;12.57;4.82;;;;;;;;;;4733381;30;20067;-86
2023/09/29 04:34:01;;;;;;;15.35;4.65;;;;;;;;;;4718371;30;20059;-85
2023/09/29 04:36:27;;;;;;;13.93;4.63;;;;;;;;;;4732999;30;20080;-86
2023/09/29 04:38:54;;;;;;;11.60;4.53;;;;;;;;;;4703835;30;20055;-89
2023/09/29 04:41:20;;;;;;;12.25;5.07;;;;;;;;;;4703865;30;20059;-88
2023/09/29 04:43:46;;;;;;;12.02;5.30;;;;;;;;;;4717728;30;20053;-87
2023/09/29 04:46:13;;;;;;;14.65;5.20;;;;;;;;;;4732539;30;20105;-86
2023/09/29 04:48:39;;;;;;;14.93;4.97;;;;;;;;;;4706391;30;20080;-86
2023/09/29 04:51:05;;;;;;;13.60;5.55;;;;;;;;;;4721520;30;20045;-86
2023/09/29 04:53:31;;;;;;;13.80;3.95;;;;;;;;;;4735741;30;20056;-88
2023/09/29 04:55:59;;;;;;;14.38;5.38;;;;;;;;;;4735610;30;20276;-86
2023/09/29 04:58:25;;;;;;;12.77;5.13;;;;;;;;;;4735959;30;20056;-88
2023/09/29 05:00:52;;;;;;;21.25;5.68;;;;;;;;;;4736258;30;20049;-86
2023/09/29 05:03:19;;;;;;;13.00;5.07;;;;;;;;;;4706914;30;20131;-90
2023/09/29 05:05:47;;;;;;;11.85;5.45;;;;;;;;;;4721054;30;20052;-87
2023/09/29 05:08:14;;;;;;;9.48;4.47;;;;;;;;;;4720957;30;20100;-90
2023/09/29 05:10:41;;;;;;;13.45;5.32;;;;;;;;;;4735817;30;20059;-91
2023/09/29 05:13:07;;;;;;;13.63;4.93;;;16.40;1.00;;;;;;4721165;30;20063;-90
2023/09/29 05:15:36;;;;;;;16.83;5.20;;;;;;;;;;4721219;30;20052;-85
2023/09/29 05:18:02;;;;;;;16.27;5.93;;;;;;;;;;4735873;30;20530;-89
2023/09/29 05:20:28;;;;;;;12.13;4.97;;;;;;;;;;4692055;30;20045;-85
2023/09/29 05:22:54;;;;;;;17.48;4.93;;;;;;;;;;4720629;30;20547;-82
2023/09/29 05:25:20;;;;;;;12.40;4.70;;;;;;;;;;4721094;30;20064;-86
2023/09/29 05:27:46;;;;;;;12.60;4.93;;;;;;;;;;4720574;30;20053;-84
2023/09/29 05:30:12;;;;;;;12.32;5.78;;;;;;;;;;4691730;30;20139;-83
2023/09/29 05:32:39;;;;;;;17.05;5.57;;;;;;;;;;4735669;30;20041;-86
2023/09/29 05:35:05;;;;;;;11.10;4.93;;;;;;;;;;4706447;30;20415;-83
2023/09/29 05:37:32;;;;;;;9.38;5.13;;;;;;;;;;4691649;30;20400;-83
2023/09/29 05:40:03;;;;;;;15.35;5.00;;;;;;;;;;4691662;30;20048;-83
2023/09/29 05:42:30;;;;;;;13.80;4.85;;;;;;;;;;4720600;30;20049;-82
2023/09/29 05:44:56;;;;;;;12.88;5.40;;;;;;;;;;4734988;30;20055;-87
2023/09/29 05:47:23;;;;;;;12.40;5.22;;;;;;;;;;4735134;30;20053;-86
2023/09/29 05:49:49;;;;;;;14.68;5.88;;;;;;;;;;4705872;30;20394;-88
2023/09/29 05:52:15;;;;;;;20.92;7.00;;;;;;;;;;4691477;30;20057;-87
2023/09/29 05:54:41;;;;;;;19.42;5.93;;;;;;;;;;4720974;30;20060;-87
2023/09/29 05:57:07;;;;;;;15.80;5.88;;;;;;;;;;4720126;30;20131;-87
2023/09/29 05:59:33;;;;;;;12.10;5.03;;;;;;;;;;4733784;30;20053;-86
2023/09/29 06:01:59;;;;;;;14.43;6.13;;;;;;;;;;4734930;30;20621;-86
2023/09/29 06:04:25;;;;;;;13.75;5.70;;;;;;;;;;4734581;30;20067;-90
2023/09/29 06:06:51;;;;;;;12.40;5.55;;;;;;;;;;4720151;30;20049;-85
2023/09/29 06:09:17;;;;;;;12.80;5.55;;;;;;;;;;4734602;30;20083;-89
2023/09/29 06:11:43;;;;;;;12.65;5.10;;;;;;;;;;4720011;30;20048;-89
2023/09/29 06:14:10;;;;;;;10.30;5.03;;;;;;;;;;4691251;30;20057;-85
2023/09/29 06:16:36;;;;;;;7.25;4.53;;;;;;;;;;4720051;30;20547;-87
2023/09/29 06:19:02;;;;;;;11.23;4.70;;;;;;;;;;4719754;30;20048;-87
2023/09/29 06:21:28;;;;;;;15.30;4.75;;;;;;;;;;4734513;30;20057;-88
2023/09/29 06:23:54;;;;;;;11.93;4.70;;;;;;;;;;4720102;30;20495;-90
2023/09/29 06:26:20;;;;;;;10.85;5.07;;;;;;;;;;4734207;30;20056;-86
2023/09/29 06:28:47;;;;;;;13.60;5.30;;;;;;;;;;4735816;30;20067;-86
2023/09/29 06:31:13;;;;;;;10.75;4.88;;;;;;;;;;4734445;30;20065;-85
2023/09/29 06:33:39;;;;;;;9.38;4.38;;;;;;;;;;4705494;30;20457;-87
2023/09/29 06:36:05;;;;;;;13.40;4.72;;;;;;;;;;4734597;30;20091;-89
2023/09/29 06:38:31;;;;;;;12.75;4.60;;;;;;;;;;4734711;30;20049;-88
2023/09/29 06:40:58;;;;;;;12.82;5.00;;;;;;;;;;4735602;30;20041;-94
2023/09/29 06:43:25;;;;;;;17.02;6.10;;;;;;;;;;4734572;30;20057;-88
2023/09/29 06:45:51;;;;;;;10.85;4.75;;;;;;;;;;4705233;30;20048;-90
2023/09/29 06:48:17;;;;;;;17.13;5.65;;;16.70;2.80;;;;;;4719900;30;20059;-85
2023/09/29 06:50:43;;;;;;;14.35;7.30;;;;;;;;;;4690749;30;20052;-87
2023/09/29 06:53:09;;;;;;;13.73;4.95;;;;;;;;;;4719508;30;20095;-86
2023/09/29 06:55:35;;;;;;;7.70;4.20;;;;;;;;;;4719929;30;20040;-88
2023/09/29 06:58:03;;;;;;;6.80;4.82;;;;;;;;;;4719970;30;20071;-88
2023/09/29 07:00:29;;;;;;;13.45;5.20;;;;;;;;;;4734208;30;20053;-90
2023/09/29 07:02:55;;;;;;;14.10;5.00;;;;;;;;;;4719883;30;20049;-86
2023/09/29 07:05:21;;;;;;;11.63;5.32;;;;;;;;;;4743194;30;20175;-86
2023/09/29 07:07:47;;;;;;;15.75;5.78;;;;;;;;;;4691654;30;20052;-91
2023/09/29 07:10:13;;;;;;;10.25;5.60;;;17.20;1.00;;;;;;4695028;30;20068;-88
2023/09/29 07:12:40;;;;;;;9.43;4.55;;;;;;;;;;4709207;30;20334;-87
2023/09/29 07:15:06;;;;;;;8.43;5.25;;;;;;;;;;4709927;30;20431;-91
2023/09/29 07:17:32;;;;;;;9.93;5.85;;;;;;;;;;4683195;30;20052;-88
2023/09/29 07:19:59;;;;;;;10.52;5.53;;;;;;;;;;4696420;30;20110;-88
2023/09/29 07:22:25;;;;;;;8.57;4.60;;;;;;;;;;4711753;30;20120;-92
2023/09/29 07:24:57;;;;;;;9.30;4.85;;;;;;;;;;4696943;30;20069;-90
2023/09/29 07:27:23;;;;;;;8.98;5.03;;;;;;;;;;4697869;30;20168;-86
2023/09/29 07:29:49;;;;;;;14.75;6.10;;;;;;;;;;4696706;30;20072;-89
2023/09/29 07:32:15;;;;;;;8.60;4.72;;;;;;;;;;4709181;30;20057;-89
2023/09/29 07:34:42;;;;;;;11.18;5.05;;;;;;;;;;4709294;30;20506;-86
2023/09/29 07:37:08;;;;;;;8.68;5.10;;;;;;;;;;4708842;30;20049;-89
2023/09/29 07:39:34;;;;;;;12.93;5.00;;;;;;;;;;4681202;30;20060;-87
2023/09/29 07:42:00;;;;;;;12.90;5.50;;;;;;;;;;4726676;30;20094;-87
2023/09/29 07:44:26;;;;;;;13.93;5.47;;;;;;;;;;4709554;30;20049;-84
2023/09/29 07:46:53;;;;;;;11.40;6.13;;;;;;;;;;4708863;30;20044;-90
2023/09/29 07:49:20;;;;;;;11.13;5.00;;;17.70;1.00;;;;;;4694554;30;20048;-86
2023/09/29 07:51:47;;;;;;;18.30;5.35;;;;;;;;;;4694412;30;20056;-90
2023/09/29 07:54:15;;;;;;;10.13;5.75;;;;;;;;;;4725583;30;20543;-87
2023/09/29 07:56:41;;;;;;;10.75;4.80;;;;;;;;;;4694836;30;20081;-84
2023/09/29 07:59:07;;;;;;;9.18;4.90;;;;;;;;;;4697167;30;20464;-87
2023/09/29 08:01:34;;;;;;;10.75;4.80;;;;;;;;;;4710818;30;20088;-86
2023/09/29 08:04:00;;;;;;;8.10;4.88;;;;;;;;;;4693344;30;20049;-86
2023/09/29 08:06:26;;;;;;;11.98;6.63;;;;;;;;;;4707254;30;20049;-86
2023/09/29 08:08:52;;;;;;;6.95;4.70;;;;;;;;;;4707479;30;20069;-84
2023/09/29 08:11:19;;;;;;;7.70;4.68;;;;;;;;;;4712263;30;20682;-84
2023/09/29 08:13:46;;;;;;;8.73;4.72;;;;;;;;;;4691490;30;20045;-89
2023/09/29 08:16:12;;;;;;;15.65;4.30;;;;;;;;;;4711654;30;20053;-88
2023/09/29 08:18:38;;;;;;;10.85;4.78;;;;;;;;;;4711656;30;20049;-92
2023/09/29 08:21:04;;;;;;;9.32;3.88;;;;;;;;;;4705080;30;20499;-92
2023/09/29 08:23:31;;;;;;;7.18;4.43;;;;;;;;;;4706881;30;20514;-85
2023/09/29 08:25:58;;;;;;;6.47;3.92;;;;;;;;;;4694280;30;20144;-90
2023/09/29 08:28:24;;;;;;;7.03;3.78;;;;;;;;;;4711173;30;20053;-86
2023/09/29 08:30:50;;;;;;;8.77;4.28;;;;;;;;;;4707816;30;20102;-86
2023/09/29 08:33:16;;;;;;;11.45;3.35;;;;;;;;;;4696823;30;20052;-84
2023/09/29 08:35:42;;;;;;;9.38;4.07;;;;;;;;;;4698293;30;20425;-87
2023/09/29 08:38:09;;;;;;;5.88;3.72;;;;;;;;;;4709119;30;20132;-86
2023/09/29 08:40:39;;;;;;;11.60;4.13;;;19.00;1.00;;;;;;4708381;30;20056;-83
2023/09/29 08:43:06;;;;;;;5.65;3.55;;;18.60;1.00;;;;;;4693601;30;20052;-82
2023/09/29 08:45:33;;;;;;;12.20;4.60;;;;;;;;;;4680511;30;20602;-92
2023/09/29 08:48:00;;;;;;;9.68;3.40;;;19.00;1.00;;;;;;4707373;30;20056;-87
2023/09/29 08:50:25;;;;;;;5.15;3.63;;;19.10;1.00;;;;;;4708502;30;20113;-82
2023/09/29 08:52:53;;;;;;;5.55;3.95;;;19.20;1.00;;;;;;4708111;30;20048;-83
2023/09/29 08:55:19;;;;;;;6.10;3.92;;;19.40;1.00;;;;;;4694836;30;20468;-90
2023/09/29 08:57:46;;;;;;;6.07;3.47;;;;;;;;;;4707685;30;20053;-83
2023/09/29 09:00:12;;;;;;;8.00;3.85;;;19.30;1.00;;;;;;4709116;30;20056;-91
2023/09/29 09:02:44;;;;;;;9.40;4.20;;;19.20;1.00;;;;;;4711062;30;20049;-90
2023/09/29 09:05:14;;;;;;;10.05;3.55;;;19.30;1.00;;;;;;4713549;30;20049;-90
2023/09/29 09:07:41;;;;;;;5.90;3.92;;;19.80;1.00;;;;;;4683407;30;20153;-89
2023/09/29 09:10:09;;;;;;;4.97;3.45;;;19.60;1.00;;;;;;4728801;30;20092;-90
2023/09/29 09:12:36;;;;;;;7.00;3.60;;;19.60;1.00;;;;;;4684976;30;20048;-90
2023/09/29 09:15:04;;;;;;;7.43;3.63;;;20.00;1.00;;;;;;4714009;30;20064;-92
2023/09/29 09:17:31;;;;;;;8.13;3.90;;;19.70;1.00;;;;;;4699633;30;20473;-87
2023/09/29 09:19:57;;;;;;;4.05;3.08;;;;;;;;;;4712213;30;20101;-82
2023/09/29 09:22:31;;;;;;;10.57;3.92;;;19.90;1.00;;;;;;4710248;30;20044;-86
2023/09/29 09:25:02;;;;;;;6.75;3.95;;;19.90;1.00;;;;;;4697514;30;20131;-90
2023/09/29 09:27:41;;;;;;;8.20;3.40;;;19.90;1.00;;;;;;4699709;30;20503;-85
2023/09/29 09:30:21;;;;;;;6.07;3.85;;;19.70;1.00;;;;;;4714875;30;20049;-90
2023/09/29 09:32:47;;;;;;;6.80;3.70;;;;;;;;;;4700089;30;20052;-90
2023/09/29 09:35:27;;;;;;;7.70;4.00;;;20.00;1.00;;;;;;4699865;30;20060;-87
2023/09/29 09:37:54;;;;;;;6.97;4.20;;;19.90;1.00;;;;;;4700404;30;20124;-91
2023/09/29 09:40:20;;;;;;;8.57;3.92;;;;;;;;;;4714461;30;20718;-85
2023/09/29 09:42:49;;;;;;;8.85;4.55;;;20.20;1.00;;;;;;4712833;30;20056;-88
2023/09/29 09:45:15;;;;;;;8.85;4.68;;;;;;;;;;4714149;30;20056;-91
2023/09/29 09:47:41;;;;;;;6.78;4.15;;;;;;;;;;4699407;30;20517;-89
2023/09/29 09:50:11;;;;;;;4.68;3.15;;;20.20;1.00;;;;;;4715717;30;20072;-88
2023/09/29 09:52:39;;;;;;;7.35;4.53;;;20.20;1.00;;;;;;4684738;30;20111;-91
2023/09/29 09:55:13;;;;;;;12.85;4.13;;;21.30;1.00;;;;;;4698911;30;20147;-89
2023/09/29 09:57:50;;;;;;;5.80;4.03;;;20.10;1.00;;;;;;4713029;30;20052;-86
2023/09/29 10:00:16;;;;;;;6.65;4.03;;;;;;;;;;4711070;30;20048;-87
2023/09/29 10:02:43;;;;;;;9.10;4.53;;;;;;;;;;4712403;30;20537;-85
2023/09/29 10:05:23;;;;;;;12.68;4.57;;;20.30;1.00;;;;;;4711509;30;20048;-89
2023/09/29 10:07:55;;;;;;;9.23;4.38;;;20.30;1.00;;;;;;4698281;30;20521;-86
2023/09/29 10:10:40;;;;;;;8.10;3.97;;;20.30;1.00;;;;;;4715326;30;20048;-87
2023/09/29 10:13:11;;;;;;;7.72;4.85;;;20.20;1.00;;;;;;4695027;30;20041;-90
2023/09/29 10:15:41;;;;;;;9.43;4.05;;;20.30;1.00;;;;;;4709929;30;20052;-86
2023/09/29 10:18:17;;;;;;;7.00;4.05;;;20.30;1.00;;;;;;4710636;30;20052;-88
2023/09/29 10:20:43;;;;;;;9.23;4.75;;;;;;;;;;4679735;30;20511;-88
2023/09/29 10:23:15;;;;;;;5.82;3.35;;;20.20;1.00;;;;;;4692618;30;20059;-86
2023/09/29 10:25:46;;;;;;;6.00;3.53;;;20.50;1.00;;;;;;4693495;30;20088;-85
2023/09/29 10:28:12;;;;;;;9.98;4.60;;;20.50;1.00;;;;;;4679220;30;20749;-85
2023/09/29 10:30:40;;;;;;;9.32;4.32;;;20.40;1.00;;;;;;4707573;30;20064;-86
2023/09/29 10:33:11;;;;;;;7.68;4.30;;;20.30;1.00;;;;;;4710296;30;20136;-93
2023/09/29 10:35:44;;;;;;;8.07;4.45;;;20.40;1.00;;;;;;4706899;30;20075;-90
2023/09/29 10:38:22;;;;;;;9.82;4.47;;;20.50;1.00;;;;;;4711634;30;20099;-88
2023/09/29 10:40:48;;;;;;;9.35;4.22;;;;;;;;;;4692712;30;20510;-89
2023/09/29 10:43:18;;;;;;;8.65;3.53;;;20.40;1.00;;;;;;4694380;30;20056;-92
2023/09/29 10:45:44;;;;;;;5.28;3.78;;;;;;;;;;4691395;30;20076;-93
2023/09/29 10:48:11;;;;;;;9.43;3.72;;;20.40;1.00;;;;;;4706483;30;20470;-90
2023/09/29 10:50:50;;;;;;;4.90;3.90;;;20.20;1.00;;;;;;4698718;30;20053;-92
2023/09/29 10:53:21;;;;;;;7.32;3.38;;;20.10;1.00;;;;;;4726898;30;20122;-89
2023/09/29 10:55:49;;;;;;;6.80;3.92;;;20.00;1.00;;;;;;4708780;30;20064;-92
2023/09/29 10:58:17;;;;;;;8.45;4.43;;;20.00;1.00;;;;;;4693364;30;20094;-90
2023/09/29 11:00:46;;;;;;;7.22;3.95;;;20.10;1.00;;;;;;4711170;30;20076;-87
2023/09/29 11:03:18;;;;;;;8.10;4.65;;;20.00;1.00;;;;;;4724631;30;20060;-90
2023/09/29 11:05:52;;;;;;;7.53;4.03;;;20.00;1.00;;;;;;4695962;30;20696;-88
2023/09/29 11:08:42;;;;;;;8.73;3.55;;;20.10;1.00;;;;;;4702757;30;20297;-91
2023/09/29 11:11:09;;;;;;;5.65;3.63;;;;;;;;;;4736053;30;20071;-86
2023/09/29 11:13:38;;;;;;;12.73;4.40;;;;;;;;;;4714404;30;20048;-86
2023/09/29 11:16:17;;;;;;;7.10;3.90;;;20.10;1.00;;;;;;4730996;30;20073;-88
2023/09/29 11:18:46;;;;;;;8.02;3.67;;;19.90;1.00;;;;;;4705039;30;20060;-88
2023/09/29 11:21:13;;;;;;;9.90;3.72;;;;;;;;;;4705769;30;20480;-91
2023/09/29 11:23:44;;;;;;;5.07;3.50;;;20.00;1.00;;;;;;4704627;30;20055;-89
2023/09/29 11:26:15;;;;;;;8.98;4.93;;;20.00;1.00;;;;;;4738867;30;20060;-88
2023/09/29 11:28:48;;;;;;;9.35;4.80;;;19.90;1.00;;;;;;4723732;30;20055;-88
2023/09/29 11:31:15;;;;;;;6.55;3.80;;;19.90;1.00;;;;;;4707870;30;20067;-84
2023/09/29 11:33:44;;;;;;;9.52;4.63;;;20.00;1.00;;;;;;4723181;30;20124;-85
2023/09/29 11:36:23;;;;;;;5.90;4.65;;;19.90;1.00;;;;;;4729837;30;20060;-86
2023/09/29 11:38:50;;;;;;;6.18;4.68;;;;;;;;;;4723099;30;20063;-85
2023/09/29 11:41:22;;;;;;;7.60;4.68;;;19.80;1.00;;;;;;4709631;30;20048;-88
2023/09/29 11:43:56;;;;;;;8.65;4.85;;;;;;;;;;4740499;30;20044;-86
2023/09/29 11:46:22;;;;;;;11.68;5.47;;;;;;;;;;4731052;30;20392;-88
2023/09/29 11:48:48;;;;;;;8.07;5.10;;;;;;;;;;4712264;30;20075;-87
2023/09/29 11:51:14;;;;;;;4.82;3.83;;;;;;;;;;4710629;30;20056;-88
2023/09/29 11:53:40;;;;;;;1.55;0.98;;;19.90;1.00;;;;;;4711686;30;20064;-88
2023/09/29 11:56:12;;;;;;;2.03;0.80;;;;;;;;;;4693585;30;20072;-87
2023/09/29 11:58:40;;;;;;;3.30;1.00;;;;;;;;;;4700319;30;20045;-88
2023/09/29 12:01:08;;;;;;;3.05;0.80;;;;;;;;;;4693026;30;20053;-88
2023/09/29 12:03:34;;;;;;;0.90;0.80;;;;;;;;;;4701834;30;20048;-87
2023/09/29 12:06:02;;;;;;;1.40;0.80;;;;;;;;;;4691727;30;20049;-87
2023/09/29 12:08:29;;;;;;;3.55;1.20;;;;;;;;;;4691500;30;20079;-88
2023/09/29 12:10:55;;;;;;;2.35;0.80;;;;;;;;;;4691827;30;20097;-87
2023/09/29 12:13:22;;;;;;;2.88;1.20;;;;;;;;;;4697636;30;20068;-87
2023/09/29 12:15:48;;;;;;;2.17;0.95;;;;;;;;;;4699190;30;20049;-87
2023/09/29 12:18:15;;;;;;;4.35;1.00;;;;;;;;;;4691286;30;20060;-87
2023/09/29 12:20:43;;;;;;;1.48;1.10;;;;;;;;;;4706440;30;20059;-87
2023/09/29 12:23:09;;;;;;;1.75;0.93;;;;;;;;;;4691185;30;20183;-87
2023/09/29 12:25:36;;;;;;;2.15;1.55;;;;;;;;;;4705529;30;20143;-87
2023/09/29 12:28:05;;;;;;;2.40;1.48;;;;;;;;;;4689717;30;20160;-85
2023/09/29 12:30:34;;;;;;;3.65;1.83;;;;;;;;;;4692967;30;20083;-86
2023/09/29 12:33:04;;;;;;;5.82;1.30;;;;;;;;;;4721785;30;20134;-87
2023/09/29 12:35:30;;;;;;;3.92;1.20;;;;;;;;;;4690332;30;20049;-86
2023/09/29 12:37:56;;;;;;;7.72;1.40;;;;;;;;;;4689586;30;20484;-86
2023/09/29 12:40:28;;;;;;;2.05;1.48;;;;;;;;;;4685672;30;20747;-86
2023/09/29 12:42:59;;;;;;;6.45;1.50;;;;;;;;;;4693432;30;20057;-86
2023/09/29 12:45:25;;;;;;;2.50;1.50;;;;;;;;;;4690875;30;20057;-87
2023/09/29 12:47:52;;;;;;;3.83;1.20;;;;;;;;;;4690874;30;20232;-87
2023/09/29 12:50:19;;;;;;;3.95;1.50;;;;;;;;;;4690415;30;20072;-87
2023/09/29 12:52:45;;;;;;;1.90;1.02;;;;;;;;;;4720520;30;20057;-87
2023/09/29 12:55:13;;;;;;;1.13;0.73;;;;;;;;;;4720375;30;20147;-87
2023/09/29 12:57:39;;;;;;;3.67;0.95;;;;;;;;;;4720735;30;20102;-87
2023/09/29 13:00:05;;;;;;;4.32;0.93;;;;;;;;;;4720983;30;20500;-86
2023/09/29 13:02:31;;;;;;;2.28;0.95;;;;;;;;;;4676861;30;20053;-86
2023/09/29 13:04:58;;;;;;;2.40;1.35;;;;;;;;;;4720316;30;20061;-86
2023/09/29 13:07:24;;;;;;;3.65;0.70;;;;;;;;;;4703889;30;20057;-86
2023/09/29 13:09:51;;;;;;;3.10;0.85;;;;;;;;;;4706920;30;20071;-87
2023/09/29 13:12:19;;;;;;;3.33;1.08;;;;;;;;;;4693855;30;20495;-87
2023/09/29 13:14:45;;;;;;;2.53;1.00;;;;;;;;;;4694759;30;20052;-86
2023/09/29 13:17:13;;;;;;;4.57;1.50;;;;;;;;;;4692602;30;20045;-87
2023/09/29 13:19:40;;;;;;;3.50;1.08;;;;;;;;;;4694087;30;20056;-86
2023/09/29 13:22:07;;;;;;;4.32;1.10;;;;;;;;;;4679855;30;20125;-87
2023/09/29 13:24:33;;;;;;;3.97;1.33;;;;;;;;;;4694206;30;20045;-87
2023/09/29 13:26:59;;;;;;;3.83;1.17;;;;;;;;;;4680065;30;21000;-87
2023/09/29 13:29:26;;;;;;;2.28;0.85;;;;;;;;;;4679407;30;20059;-87
2023/09/29 13:31:53;;;;;;;4.65;1.70;;;;;;;;;;4693595;30;20044;-86
2023/09/29 13:34:19;;;;;;;2.50;1.55;;;;;;;;;;4678466;30;20114;-87
2023/09/29 13:36:48;;;;;;;5.03;1.65;;;;;;;;;;4679417;30;20135;-85
2023/09/29 13:39:14;;;;;;;3.70;1.67;;;;;;;;;;4694045;30;20052;-87
2023/09/29 13:41:40;;;;;;;3.70;1.63;;;;;;;;;;4694038;30;20055;-87
2023/09/29 13:44:07;;;;;;;4.57;1.60;;;;;;;;;;4692871;30;20064;-86
2023/09/29 13:46:33;;;;;;;4.30;1.58;;;;;;;;;;4678973;30;20450;-87
2023/09/29 13:48:59;;;;;;;6.20;1.50;;;;;;;;;;4680223;30;20470;-87
2023/09/29 13:51:26;;;;;;;4.35;1.55;;;;;;;;;;4723829;30;20047;-88
2023/09/29 13:53:52;;;;;;;4.22;1.65;;;;;;;;;;4693478;30;20465;-86
2023/09/29 13:56:19;;;;;;;7.25;2.42;;;;;;;;;;4693607;30;20041;-86
2023/09/29 13:58:45;;;;;;;3.50;1.90;;;;;;;;;;4693066;30;20100;-89
2023/09/29 14:01:12;;;;;;;12.43;2.80;;;;;;;;;;4692495;30;20065;-89
2023/09/29 14:03:38;;;;;;;5.07;2.17;;;;;;;;;;4692796;30;20060;-87
2023/09/29 14:06:06;;;;;;;4.80;2.30;;;;;;;;;;4708001;30;20052;-88
2023/09/29 14:08:33;;;;;;;3.47;1.83;;;;;;;;;;4694361;30;20064;-88
2023/09/29 14:10:59;;;;;;;4.45;2.40;;;;;;;;;;4692920;30;20515;-89
2023/09/29 14:13:25;;;;;;;5.30;2.47;;;;;;;;;;4706990;30;20048;-87